Asyut, Egypt

12:55 PM EET on October 20, 2014 (GMT +0200)
Asyut International | Change Station
CLOSE
Current Station
Airport
Location: Asyut,
Elevation: 741 ft
Nearby Weather Stations

Elev 741 ft 27.04 °N, 31.01 °E | Updated 55 minutes ago

Partly Cloudy
Partly Cloudy
77 °F
Feels Like 77 °F
N
7
Wind Variable Wind from NNE

Today
High -- | Low -- °F
--% Chance of Precip.
Yesterday
High -- | Low -- °F
Precip. -- in
5:58 AM 5:22 PM
Waning Crescent, 11% visible
Pressure 29.98 in
Visibility 6.2 miles
Clouds Few 2500 ft
Dew Point 55 °F
Humidity 47%
Rainfall 0.00 in
Snow Depth Not available.
UV 8 out of 12
Pollen Not available.
Air Quality Not available.
Flu Activity Not available.
METAR HEAT 201000Z 02006KT 9999 FEW025 25/13 Q1015 NOSIG

More Conditions Fewer Conditions

Pressure 29.98 in
Visibility 6.2 miles
Clouds Few 2500 ft
Dew Point 55 °F
Humidity 47%
Rainfall 0.00 in
Snow Depth Not available.
UV 8 out of 12
Pollen Not available.
Air Quality Not available.
Flu Activity Not available.
METAR HEAT 201000Z 02006KT 9999 FEW025 25/13 Q1015 NOSIG

More Conditions Fewer Conditions

10-Day Weather Forecast

Almanac

Astronomy

Oct. 20, 2014 Rise Set
Actual Time 5:58 AM EET 5:22 PM EET
Civil Twilight 5:34 AM EET 5:46 PM EET
Nautical Twilight 5:07 AM EET 6:13 PM EET
Astronomical Twilight 4:40 AM EET 6:40 PM EET
Moon 2:46 AM EET 3:19 PM EET
Length of Visible Light 12h 11m
Length of Day
11h 24m
Tomorrow will be 1m 30s shorter.
Waning Crescent, 11% of the Moon is Illuminated
Today
Waning Crescent
Oct 23
New
Oct 30
First Quarter
Nov 6
Full
Nov 14
Last Quarter

Yesterday's Extremes

Country Highs Country Lows

Community

WunderPhotos

Upload Photos

1,763,331 photos uploaded!

Nearby

Snow Depth

Not available.

Earthquake Activity

City Distance Mag. Time & Date
No recent earthquake activity has been reported nearby.
Minimum magnitude displayed is 2.5.

Coastal Water Temperatures

Place Temperature
No Stations Reporting

Nearby Weather Stations